Terminal Aerodrome Forecast
Issued by NWS

Home | Current Version | Previous Version | Graphics & Text | Print | Product List | Glossary On
Versions: 1 2 3 4 5 6 7 8 9 10 11 12 13 14 15 16 17 18 19 20 21 22 23 24 25 26 27 28 29 30 31
024
FTUS43 KDVN 272337
TAFCID
TAF
KCID 272337Z 2800/2824 22010KT P6SM VCTS SCT040CB BKN060
     FM280400 18006KT 5SM -SHRA BR VCTS OVC035CB
     FM280900 21005KT 6SM BR VCSH BKN025
     FM281600 23010KT P6SM BKN035 PROB30 2821/2824 4SM TSRA
      BKN025CB=

USA.gov is the U.S. government's official web portal to all federal, state and local government web resources and services.